createdAt,value
2017-06-15T00:00:03.293Z,0
2017-06-15T00:05:02.805Z,0
2017-06-15T00:10:03.266Z,0
2017-06-15T00:15:02.627Z,0
2017-06-15T00:20:02.997Z,0
2017-06-15T00:25:03.403Z,0
2017-06-15T00:30:02.715Z,0
2017-06-15T00:35:03.227Z,0
2017-06-15T00:40:02.671Z,0
2017-06-15T00:45:03.020Z,0
2017-06-15T00:50:03.348Z,0
2017-06-15T00:55:02.691Z,0
2017-06-15T01:00:03.139Z,0
2017-06-15T01:05:02.549Z,0
2017-06-15T01:10:02.992Z,0
2017-06-15T01:15:03.393Z,0
2017-06-15T01:20:02.856Z,0
2017-06-15T01:25:03.204Z,0
2017-06-15T01:30:02.562Z,0
2017-06-15T01:35:02.993Z,0
2017-06-15T01:40:02.515Z,0
2017-06-15T01:45:02.980Z,0
2017-06-15T01:50:03.464Z,0
2017-06-15T01:55:02.869Z,0
2017-06-15T02:00:03.319Z,0
2017-06-15T02:05:02.768Z,0
2017-06-15T02:10:03.199Z,0
2017-06-15T02:15:02.647Z,0
2017-06-15T02:20:03.003Z,0
2017-06-15T02:25:03.435Z,0
2017-06-15T02:30:02.792Z,0
2017-06-15T02:35:03.271Z,0
2017-06-15T02:40:02.670Z,0
2017-06-15T02:45:03.057Z,0
2017-06-15T02:50:02.565Z,0
2017-06-15T02:55:02.856Z,0
2017-06-15T03:00:03.231Z,0
2017-06-15T03:05:02.538Z,0
2017-06-15T03:10:03.060Z,0
2017-06-15T03:15:03.413Z,0
2017-06-15T03:20:02.758Z,0
2017-06-15T03:25:03.139Z,2
2017-06-15T03:30:02.576Z,0
2017-06-15T03:35:03.078Z,0
2017-06-15T03:40:03.401Z,0
2017-06-15T03:45:02.729Z,0
2017-06-15T03:50:03.069Z,0
2017-06-15T03:55:02.484Z,0
2017-06-15T04:00:03.187Z,0
2017-06-15T04:05:02.474Z,0
2017-06-15T04:10:02.955Z,0
2017-06-15T04:15:03.444Z,0
2017-06-15T04:20:02.834Z,0
2017-06-15T04:25:03.353Z,0
2017-06-15T04:30:02.704Z,2
2017-06-15T04:35:03.053Z,0
2017-06-15T04:40:02.482Z,0
2017-06-15T04:45:02.910Z,0
2017-06-15T04:50:03.333Z,1
2017-06-15T04:55:02.710Z,0
2017-06-15T05:00:03.163Z,1
2017-06-15T05:05:02.485Z,0
2017-06-15T05:10:02.869Z,0
2017-06-15T05:15:03.273Z,0
2017-06-15T05:20:02.627Z,0
2017-06-15T05:25:03.010Z,0
2017-06-15T05:30:03.562Z,0
2017-06-15T05:35:03.010Z,0
2017-06-15T05:40:03.326Z,0
2017-06-15T05:45:02.717Z,0
2017-06-15T05:50:03.141Z,2
2017-06-15T05:55:02.546Z,0
2017-06-15T06:00:02.824Z,1
2017-06-15T06:05:03.110Z,0
2017-06-15T06:10:02.549Z,1
2017-06-15T06:15:03.065Z,1
2017-06-15T06:20:02.502Z,0
2017-06-15T06:25:02.831Z,1
2017-06-15T06:30:03.227Z,3
2017-06-15T06:35:02.552Z,1
2017-06-15T06:40:02.997Z,3
2017-06-15T06:45:03.415Z,2
2017-06-15T06:50:02.730Z,3
2017-06-15T06:55:03.101Z,1
2017-06-15T07:00:03.372Z,3
2017-06-15T07:05:02.808Z,3
2017-06-15T07:10:03.224Z,5
2017-06-15T07:15:02.592Z,5
2017-06-15T07:20:02.916Z,4
2017-06-15T07:25:03.213Z,4
2017-06-15T07:30:02.809Z,4
2017-06-15T07:35:03.189Z,1
2017-06-15T07:40:02.611Z,2
2017-06-15T07:45:02.956Z,0
2017-06-15T07:50:03.353Z,4
2017-06-15T07:55:02.633Z,2
2017-06-15T08:00:02.991Z,4
2017-06-15T08:05:03.411Z,3
2017-06-15T08:10:02.834Z,3
2017-06-15T08:15:03.279Z,3
2017-06-15T08:20:02.622Z,2
2017-06-15T08:25:03.046Z,3
2017-06-15T08:30:03.412Z,2
2017-06-15T08:35:02.690Z,3
2017-06-15T08:40:03.194Z,2
2017-06-15T08:45:02.551Z,2
2017-06-15T08:50:03.096Z,3
2017-06-15T08:55:03.392Z,1
2017-06-15T09:00:02.796Z,4
2017-06-15T09:05:03.144Z,3
2017-06-15T09:10:02.506Z,0
2017-06-15T09:15:02.845Z,3
2017-06-15T09:20:03.234Z,0
2017-06-15T09:25:02.584Z,4
2017-06-15T09:30:02.932Z,3
2017-06-15T09:35:02.520Z,0
2017-06-15T09:40:02.990Z,2
2017-06-15T09:45:03.368Z,3
2017-06-15T09:50:02.675Z,3
2017-06-15T10:00:02.570Z,0
2017-06-15T10:05:02.925Z,4
2017-06-15T10:15:02.950Z,5
2017-06-15T10:20:03.448Z,0
2017-06-15T10:25:02.812Z,1
2017-06-15T10:30:03.271Z,1
2017-06-15T10:35:02.885Z,4
2017-06-15T10:40:02.654Z,5
2017-06-15T10:45:03.122Z,7
2017-06-15T10:50:02.606Z,3
2017-06-15T10:55:03.263Z,6
2017-06-15T11:00:02.709Z,7
2017-06-15T11:05:03.119Z,8
2017-06-15T11:15:02.784Z,4
2017-06-15T11:20:02.823Z,4
2017-06-15T11:30:03.282Z,6
2017-06-15T11:35:02.792Z,5
2017-06-15T11:40:02.731Z,3
2017-06-15T11:50:02.426Z,3
2017-06-15T11:55:03.308Z,5
2017-06-15T12:00:02.822Z,6
2017-06-15T12:05:02.598Z,9
2017-06-15T12:10:02.813Z,5
2017-06-15T12:15:02.947Z,7
2017-06-15T12:20:02.503Z,9
2017-06-15T12:25:03.289Z,10
2017-06-15T12:30:03.242Z,10
2017-06-15T12:35:02.439Z,5
2017-06-15T12:40:02.980Z,4
2017-06-15T12:45:02.579Z,9
2017-06-15T12:50:03.298Z,8
2017-06-15T12:55:02.549Z,5
2017-06-15T13:00:02.568Z,5
2017-06-15T13:05:02.594Z,5
2017-06-15T13:10:02.505Z,4
2017-06-15T13:15:03.228Z,3
2017-06-15T13:20:02.856Z,4
2017-06-15T13:25:02.671Z,6
2017-06-15T13:30:03.362Z,5
2017-06-15T13:35:02.681Z,12
2017-06-15T13:40:03.086Z,6
2017-06-15T13:45:03.014Z,6
2017-06-15T13:50:02.760Z,3
2017-06-15T13:55:02.680Z,6
2017-06-15T14:00:03.133Z,6
2017-06-15T14:05:02.499Z,9
2017-06-15T14:10:02.458Z,9
2017-06-15T14:15:03.198Z,10
2017-06-15T14:20:03.333Z,7
2017-06-15T14:25:03.280Z,5
2017-06-15T14:30:02.640Z,8
2017-06-15T14:35:02.986Z,8
2017-06-15T14:40:03.411Z,5
2017-06-15T14:45:02.533Z,8
2017-06-15T14:50:03.173Z,6
2017-06-15T14:55:02.881Z,6
2017-06-15T15:00:02.873Z,7
2017-06-15T15:05:03.232Z,6
2017-06-15T15:10:02.948Z,7
2017-06-15T15:15:03.123Z,9
2017-06-15T15:20:03.221Z,5
2017-06-15T15:25:02.809Z,6
2017-06-15T15:30:03.241Z,6
2017-06-15T15:35:02.438Z,8
2017-06-15T15:40:02.961Z,8
2017-06-15T15:45:03.038Z,6
2017-06-15T15:50:02.477Z,6
2017-06-15T15:55:03.380Z,7
2017-06-15T16:00:03.497Z,12
2017-06-15T16:05:03.283Z,6
2017-06-15T16:10:03.133Z,9
2017-06-15T16:15:03.012Z,8
2017-06-15T16:20:02.524Z,7
2017-06-15T16:25:03.427Z,7
2017-06-15T16:30:02.963Z,10
2017-06-15T16:35:03.338Z,9
2017-06-15T16:40:03.127Z,6
2017-06-15T16:45:02.445Z,10
2017-06-15T16:50:02.908Z,9
2017-06-15T16:55:03.363Z,7
2017-06-15T17:00:02.730Z,8
2017-06-15T17:05:03.091Z,7
2017-06-15T17:10:02.515Z,12
2017-06-15T17:15:03.010Z,8
2017-06-15T17:20:03.417Z,6
2017-06-15T17:25:02.787Z,7
2017-06-15T17:30:03.094Z,7
2017-06-15T17:35:02.483Z,9
2017-06-15T17:40:03.091Z,9
2017-06-15T17:45:02.564Z,11
2017-06-15T17:50:03.130Z,8
2017-06-15T17:55:02.602Z,8
2017-06-15T18:00:03.016Z,8
2017-06-15T18:05:02.456Z,6
2017-06-15T18:10:03.031Z,9
2017-06-15T18:15:03.376Z,6
2017-06-15T18:20:02.674Z,3
2017-06-15T18:25:03.078Z,9
2017-06-15T18:30:02.484Z,7
2017-06-15T18:35:03.057Z,5
2017-06-15T18:40:02.821Z,2
2017-06-15T18:45:03.368Z,5
2017-06-15T18:50:02.893Z,7
2017-06-15T18:55:02.439Z,7
2017-06-15T19:00:03.128Z,4
2017-06-15T19:05:02.629Z,4
2017-06-15T19:10:03.176Z,4
2017-06-15T19:15:02.672Z,4
2017-06-15T19:20:03.208Z,4
2017-06-15T19:25:02.483Z,3
2017-06-15T19:30:02.783Z,3
2017-06-15T19:35:03.083Z,3
2017-06-15T19:40:02.685Z,2
2017-06-15T19:45:03.193Z,3
2017-06-15T19:50:02.645Z,2
2017-06-15T19:55:03.051Z,3
2017-06-15T20:00:03.363Z,3
2017-06-15T20:05:02.700Z,3
2017-06-15T20:10:03.215Z,2
2017-06-15T20:15:02.564Z,5
2017-06-15T20:20:03.069Z,7
2017-06-15T20:25:02.578Z,5
2017-06-15T20:30:03.013Z,5
2017-06-15T20:35:03.468Z,6
2017-06-15T20:40:02.900Z,4
2017-06-15T20:45:03.448Z,6
2017-06-15T20:50:03.071Z,3
2017-06-15T20:55:02.471Z,3
2017-06-15T21:00:03.083Z,1
2017-06-15T21:05:02.455Z,2
2017-06-15T21:10:02.991Z,7
2017-06-15T21:15:03.336Z,3
2017-06-15T21:20:02.691Z,8
2017-06-15T21:25:03.043Z,9
2017-06-15T21:30:03.449Z,7
2017-06-15T21:35:02.786Z,7
2017-06-15T21:40:03.170Z,2
2017-06-15T21:45:02.469Z,7
2017-06-15T21:50:02.876Z,3
2017-06-15T21:55:03.310Z,5
2017-06-15T22:00:02.695Z,6
2017-06-15T22:05:03.104Z,5
2017-06-15T22:10:02.679Z,5
2017-06-15T22:15:03.136Z,4
2017-06-15T22:20:02.466Z,4
2017-06-15T22:25:02.867Z,5
2017-06-15T22:30:03.210Z,3
2017-06-15T22:35:03.391Z,8
2017-06-15T22:40:02.855Z,5
2017-06-15T22:45:03.212Z,4
2017-06-15T22:50:02.679Z,5
2017-06-15T22:55:03.105Z,5
2017-06-15T23:00:03.584Z,6
2017-06-15T23:05:03.030Z,9
2017-06-15T23:10:02.442Z,7
2017-06-15T23:15:02.908Z,7
2017-06-15T23:20:03.307Z,4
2017-06-15T23:25:02.757Z,5
2017-06-15T23:30:03.113Z,5
2017-06-15T23:35:02.606Z,6
2017-06-15T23:40:02.874Z,5
2017-06-15T23:45:03.134Z,6
2017-06-15T23:50:02.597Z,6
2017-06-15T23:55:02.857Z,5
